sensor_id;sensor_type;location;lat;lon;timestamp;temperature;humidity
5196;DHT22;2617;51.006;12.436;2023-11-21T00:00:15;7.50;99.90
5196;DHT22;2617;51.006;12.436;2023-11-21T00:05:18;7.40;99.90
5196;DHT22;2617;51.006;12.436;2023-11-21T00:10:20;7.40;99.90
5196;DHT22;2617;51.006;12.436;2023-11-21T00:15:22;7.30;99.90
5196;DHT22;2617;51.006;12.436;2023-11-21T00:20:23;7.30;99.90
5196;DHT22;2617;51.006;12.436;2023-11-21T00:25:25;7.10;99.90
5196;DHT22;2617;51.006;12.436;2023-11-21T00:30:27;7.00;99.90
5196;DHT22;2617;51.006;12.436;2023-11-21T00:35:29;6.90;99.90
5196;DHT22;2617;51.006;12.436;2023-11-21T00:40:30;6.80;99.90
5196;DHT22;2617;51.006;12.436;2023-11-21T00:45:33;6.70;99.90
5196;DHT22;2617;51.006;12.436;2023-11-21T00:50:34;6.60;99.90
5196;DHT22;2617;51.006;12.436;2023-11-21T00:55:36;6.60;99.90
5196;DHT22;2617;51.006;12.436;2023-11-21T01:00:38;6.40;99.90
5196;DHT22;2617;51.006;12.436;2023-11-21T01:05:40;6.40;99.90
5196;DHT22;2617;51.006;12.436;2023-11-21T01:10:42;6.20;99.90
5196;DHT22;2617;51.006;12.436;2023-11-21T01:15:44;6.20;99.90
5196;DHT22;2617;51.006;12.436;2023-11-21T01:20:45;6.20;99.90
5196;DHT22;2617;51.006;12.436;2023-11-21T01:25:47;6.20;99.90
5196;DHT22;2617;51.006;12.436;2023-11-21T01:30:49;6.20;99.90
5196;DHT22;2617;51.006;12.436;2023-11-21T01:35:51;6.20;99.90
5196;DHT22;2617;51.006;12.436;2023-11-21T01:40:53;6.20;99.90
5196;DHT22;2617;51.006;12.436;2023-11-21T01:45:55;6.30;99.90
5196;DHT22;2617;51.006;12.436;2023-11-21T01:50:57;6.40;99.90
5196;DHT22;2617;51.006;12.436;2023-11-21T01:55:59;6.40;99.90
5196;DHT22;2617;51.006;12.436;2023-11-21T02:01:01;6.50;99.90
5196;DHT22;2617;51.006;12.436;2023-11-21T02:06:04;6.50;99.90
5196;DHT22;2617;51.006;12.436;2023-11-21T02:11:06;6.50;99.90
5196;DHT22;2617;51.006;12.436;2023-11-21T02:16:08;6.50;99.90
5196;DHT22;2617;51.006;12.436;2023-11-21T02:21:10;6.60;99.90
5196;DHT22;2617;51.006;12.436;2023-11-21T02:26:12;6.60;99.90
5196;DHT22;2617;51.006;12.436;2023-11-21T02:31:14;6.60;99.90
5196;DHT22;2617;51.006;12.436;2023-11-21T02:36:15;6.70;99.90
5196;DHT22;2617;51.006;12.436;2023-11-21T02:41:17;6.70;99.90
5196;DHT22;2617;51.006;12.436;2023-11-21T02:46:19;6.70;99.90
5196;DHT22;2617;51.006;12.436;2023-11-21T02:51:21;6.70;99.90
5196;DHT22;2617;51.006;12.436;2023-11-21T02:56:22;6.70;99.90
5196;DHT22;2617;51.006;12.436;2023-11-21T03:01:24;6.60;99.90
5196;DHT22;2617;51.006;12.436;2023-11-21T03:06:26;6.70;99.90
5196;DHT22;2617;51.006;12.436;2023-11-21T03:11:28;6.60;99.90
5196;DHT22;2617;51.006;12.436;2023-11-21T03:16:31;6.70;99.90
5196;DHT22;2617;51.006;12.436;2023-11-21T03:21:32;6.70;99.90
5196;DHT22;2617;51.006;12.436;2023-11-21T03:26:33;6.70;99.90
5196;DHT22;2617;51.006;12.436;2023-11-21T03:31:35;6.80;99.90
5196;DHT22;2617;51.006;12.436;2023-11-21T03:36:37;6.90;99.90
5196;DHT22;2617;51.006;12.436;2023-11-21T03:41:38;6.90;99.90
5196;DHT22;2617;51.006;12.436;2023-11-21T03:46:41;7.00;99.90
5196;DHT22;2617;51.006;12.436;2023-11-21T03:51:43;6.90;99.90
5196;DHT22;2617;51.006;12.436;2023-11-21T03:56:45;7.00;99.90
5196;DHT22;2617;51.006;12.436;2023-11-21T04:01:47;7.00;99.90
5196;DHT22;2617;51.006;12.436;2023-11-21T04:06:48;7.00;99.90
5196;DHT22;2617;51.006;12.436;2023-11-21T04:11:51;7.00;99.90
5196;DHT22;2617;51.006;12.436;2023-11-21T04:16:52;7.00;99.90
5196;DHT22;2617;51.006;12.436;2023-11-21T04:21:54;6.80;99.90
5196;DHT22;2617;51.006;12.436;2023-11-21T04:26:56;6.80;99.90
5196;DHT22;2617;51.006;12.436;2023-11-21T04:31:58;6.60;99.90
5196;DHT22;2617;51.006;12.436;2023-11-21T04:37:00;6.40;99.90
5196;DHT22;2617;51.006;12.436;2023-11-21T04:42:01;6.30;99.90
5196;DHT22;2617;51.006;12.436;2023-11-21T04:47:03;6.10;99.90
5196;DHT22;2617;51.006;12.436;2023-11-21T04:52:05;6.00;99.90
5196;DHT22;2617;51.006;12.436;2023-11-21T04:57:07;5.90;99.90
5196;DHT22;2617;51.006;12.436;2023-11-21T05:02:09;5.80;99.90
5196;DHT22;2617;51.006;12.436;2023-11-21T05:07:11;5.70;99.90
5196;DHT22;2617;51.006;12.436;2023-11-21T05:12:13;5.70;99.90
5196;DHT22;2617;51.006;12.436;2023-11-21T05:17:14;5.70;99.90
5196;DHT22;2617;51.006;12.436;2023-11-21T05:22:16;5.60;99.90
5196;DHT22;2617;51.006;12.436;2023-11-21T05:27:18;5.60;99.90
5196;DHT22;2617;51.006;12.436;2023-11-21T05:32:20;5.40;99.90
5196;DHT22;2617;51.006;12.436;2023-11-21T05:37:23;5.40;99.90
5196;DHT22;2617;51.006;12.436;2023-11-21T05:42:25;5.40;99.90
5196;DHT22;2617;51.006;12.436;2023-11-21T05:47:26;5.30;99.90
5196;DHT22;2617;51.006;12.436;2023-11-21T05:52:28;5.30;99.90
5196;DHT22;2617;51.006;12.436;2023-11-21T05:57:30;5.30;99.90
5196;DHT22;2617;51.006;12.436;2023-11-21T06:02:31;5.40;99.90
5196;DHT22;2617;51.006;12.436;2023-11-21T06:07:33;5.40;99.90
5196;DHT22;2617;51.006;12.436;2023-11-21T06:12:37;5.50;99.90
5196;DHT22;2617;51.006;12.436;2023-11-21T06:17:39;5.50;99.90
5196;DHT22;2617;51.006;12.436;2023-11-21T06:22:41;5.60;99.90
5196;DHT22;2617;51.006;12.436;2023-11-21T06:27:43;5.60;99.90
5196;DHT22;2617;51.006;12.436;2023-11-21T06:32:44;5.70;99.90
5196;DHT22;2617;51.006;12.436;2023-11-21T06:37:46;5.80;99.90
5196;DHT22;2617;51.006;12.436;2023-11-21T06:42:48;5.80;99.90
5196;DHT22;2617;51.006;12.436;2023-11-21T06:47:50;5.90;99.90
5196;DHT22;2617;51.006;12.436;2023-11-21T06:52:51;5.90;99.90
5196;DHT22;2617;51.006;12.436;2023-11-21T06:57:53;6.00;99.90
5196;DHT22;2617;51.006;12.436;2023-11-21T07:02:55;6.10;99.90
5196;DHT22;2617;51.006;12.436;2023-11-21T07:08:00;6.20;99.90
5196;DHT22;2617;51.006;12.436;2023-11-21T07:13:02;6.30;99.90
5196;DHT22;2617;51.006;12.436;2023-11-21T07:18:04;6.30;99.90
5196;DHT22;2617;51.006;12.436;2023-11-21T07:23:06;6.50;99.90
5196;DHT22;2617;51.006;12.436;2023-11-21T07:28:09;6.60;99.90
5196;DHT22;2617;51.006;12.436;2023-11-21T07:33:11;6.60;99.90
5196;DHT22;2617;51.006;12.436;2023-11-21T07:38:12;6.70;99.90
5196;DHT22;2617;51.006;12.436;2023-11-21T07:43:14;6.70;99.90
5196;DHT22;2617;51.006;12.436;2023-11-21T07:48:16;6.80;99.90
5196;DHT22;2617;51.006;12.436;2023-11-21T07:53:18;6.90;99.90
5196;DHT22;2617;51.006;12.436;2023-11-21T07:58:20;6.80;99.90
5196;DHT22;2617;51.006;12.436;2023-11-21T08:03:22;7.00;99.90
5196;DHT22;2617;51.006;12.436;2023-11-21T08:08:25;6.90;99.90
5196;DHT22;2617;51.006;12.436;2023-11-21T08:13:28;7.00;99.90
5196;DHT22;2617;51.006;12.436;2023-11-21T08:18:29;7.10;99.90
5196;DHT22;2617;51.006;12.436;2023-11-21T08:23:30;7.10;99.90
5196;DHT22;2617;51.006;12.436;2023-11-21T08:28:33;7.20;99.90
5196;DHT22;2617;51.006;12.436;2023-11-21T08:33:34;7.20;99.90
5196;DHT22;2617;51.006;12.436;2023-11-21T08:38:36;7.20;99.90
5196;DHT22;2617;51.006;12.436;2023-11-21T08:43:39;7.20;99.90
5196;DHT22;2617;51.006;12.436;2023-11-21T08:48:41;7.20;99.90
5196;DHT22;2617;51.006;12.436;2023-11-21T08:53:44;7.20;99.90
5196;DHT22;2617;51.006;12.436;2023-11-21T08:58:46;7.20;99.90
5196;DHT22;2617;51.006;12.436;2023-11-21T09:03:48;7.20;99.90
5196;DHT22;2617;51.006;12.436;2023-11-21T09:08:50;7.20;99.90
5196;DHT22;2617;51.006;12.436;2023-11-21T09:13:51;7.10;99.90
5196;DHT22;2617;51.006;12.436;2023-11-21T09:18:54;7.00;99.90
5196;DHT22;2617;51.006;12.436;2023-11-21T09:23:56;7.00;99.90
5196;DHT22;2617;51.006;12.436;2023-11-21T09:28:59;7.00;99.90
5196;DHT22;2617;51.006;12.436;2023-11-21T09:34:00;7.00;99.90
5196;DHT22;2617;51.006;12.436;2023-11-21T09:39:02;7.00;99.90
5196;DHT22;2617;51.006;12.436;2023-11-21T09:44:05;7.00;99.90
5196;DHT22;2617;51.006;12.436;2023-11-21T09:49:07;7.00;99.90
5196;DHT22;2617;51.006;12.436;2023-11-21T09:54:10;6.90;99.90
5196;DHT22;2617;51.006;12.436;2023-11-21T09:59:13;6.90;99.90
5196;DHT22;2617;51.006;12.436;2023-11-21T10:04:13;6.90;99.90
5196;DHT22;2617;51.006;12.436;2023-11-21T10:09:15;6.90;99.90
5196;DHT22;2617;51.006;12.436;2023-11-21T10:14:20;6.90;99.90
5196;DHT22;2617;51.006;12.436;2023-11-21T10:19:21;6.90;99.90
5196;DHT22;2617;51.006;12.436;2023-11-21T10:24:23;6.70;99.90
5196;DHT22;2617;51.006;12.436;2023-11-21T10:29:28;6.60;99.90
5196;DHT22;2617;51.006;12.436;2023-11-21T10:34:27;6.50;99.90
5196;DHT22;2617;51.006;12.436;2023-11-21T10:39:29;6.50;99.90
5196;DHT22;2617;51.006;12.436;2023-11-21T10:44:31;6.40;99.90
5196;DHT22;2617;51.006;12.436;2023-11-21T10:49:33;6.30;99.90
5196;DHT22;2617;51.006;12.436;2023-11-21T10:54:36;6.30;99.90
5196;DHT22;2617;51.006;12.436;2023-11-21T10:59:38;6.20;99.90
5196;DHT22;2617;51.006;12.436;2023-11-21T11:04:41;6.20;99.90
5196;DHT22;2617;51.006;12.436;2023-11-21T11:09:42;6.20;99.90
5196;DHT22;2617;51.006;12.436;2023-11-21T11:14:44;6.00;99.90
5196;DHT22;2617;51.006;12.436;2023-11-21T11:19:46;6.10;99.90
5196;DHT22;2617;51.006;12.436;2023-11-21T11:25:01;6.00;99.90
5196;DHT22;2617;51.006;12.436;2023-11-21T11:30:06;6.00;99.90
5196;DHT22;2617;51.006;12.436;2023-11-21T11:35:07;6.10;99.90
5196;DHT22;2617;51.006;12.436;2023-11-21T11:40:07;6.00;99.90
5196;DHT22;2617;51.006;12.436;2023-11-21T11:45:19;6.00;99.90
5196;DHT22;2617;51.006;12.436;2023-11-21T11:50:21;6.00;99.90
5196;DHT22;2617;51.006;12.436;2023-11-21T11:55:23;6.00;99.90
5196;DHT22;2617;51.006;12.436;2023-11-21T12:00:39;6.00;99.90
5196;DHT22;2617;51.006;12.436;2023-11-21T12:05:41;6.00;99.90
5196;DHT22;2617;51.006;12.436;2023-11-21T12:10:43;5.70;99.90
5196;DHT22;2617;51.006;12.436;2023-11-21T12:15:46;5.60;99.90
5196;DHT22;2617;51.006;12.436;2023-11-21T12:20:48;5.60;99.90
5196;DHT22;2617;51.006;12.436;2023-11-21T12:25:49;5.60;99.90
5196;DHT22;2617;51.006;12.436;2023-11-21T12:30:51;5.60;99.90
5196;DHT22;2617;51.006;12.436;2023-11-21T12:35:53;5.60;99.90
5196;DHT22;2617;51.006;12.436;2023-11-21T12:40:55;5.60;99.90
5196;DHT22;2617;51.006;12.436;2023-11-21T12:46:06;5.60;99.90
5196;DHT22;2617;51.006;12.436;2023-11-21T12:51:08;5.60;99.90
5196;DHT22;2617;51.006;12.436;2023-11-21T12:56:11;5.50;99.90
5196;DHT22;2617;51.006;12.436;2023-11-21T13:01:13;5.50;99.90
5196;DHT22;2617;51.006;12.436;2023-11-21T13:06:16;5.50;99.90
5196;DHT22;2617;51.006;12.436;2023-11-21T13:11:18;5.50;99.90
5196;DHT22;2617;51.006;12.436;2023-11-21T13:16:20;5.50;99.90
5196;DHT22;2617;51.006;12.436;2023-11-21T13:21:21;5.40;99.90
5196;DHT22;2617;51.006;12.436;2023-11-21T13:26:23;5.30;99.90
5196;DHT22;2617;51.006;12.436;2023-11-21T13:31:25;5.20;99.90
5196;DHT22;2617;51.006;12.436;2023-11-21T13:36:27;5.00;99.90
5196;DHT22;2617;51.006;12.436;2023-11-21T13:41:30;4.90;99.90
5196;DHT22;2617;51.006;12.436;2023-11-21T13:46:32;4.90;99.90
5196;DHT22;2617;51.006;12.436;2023-11-21T13:51:34;4.50;99.90
5196;DHT22;2617;51.006;12.436;2023-11-21T13:56:46;4.50;99.90
5196;DHT22;2617;51.006;12.436;2023-11-21T14:01:48;3.90;99.90
5196;DHT22;2617;51.006;12.436;2023-11-21T14:06:55;3.90;99.90
5196;DHT22;2617;51.006;12.436;2023-11-21T14:11:57;3.80;99.90
5196;DHT22;2617;51.006;12.436;2023-11-21T14:16:58;3.80;99.90
5196;DHT22;2617;51.006;12.436;2023-11-21T14:22:00;3.80;99.90
5196;DHT22;2617;51.006;12.436;2023-11-21T14:27:02;3.70;99.90
5196;DHT22;2617;51.006;12.436;2023-11-21T14:32:05;3.70;99.90
5196;DHT22;2617;51.006;12.436;2023-11-21T14:37:06;3.70;99.90
5196;DHT22;2617;51.006;12.436;2023-11-21T14:42:08;3.50;99.90
5196;DHT22;2617;51.006;12.436;2023-11-21T14:47:10;3.50;99.90
5196;DHT22;2617;51.006;12.436;2023-11-21T14:52:14;3.50;99.90
5196;DHT22;2617;51.006;12.436;2023-11-21T14:57:32;3.50;99.90
5196;DHT22;2617;51.006;12.436;2023-11-21T15:02:34;3.40;99.90
5196;DHT22;2617;51.006;12.436;2023-11-21T15:07:41;3.50;99.90
5196;DHT22;2617;51.006;12.436;2023-11-21T15:12:43;3.50;99.90
5196;DHT22;2617;51.006;12.436;2023-11-21T15:17:46;3.50;99.90
5196;DHT22;2617;51.006;12.436;2023-11-21T15:22:47;3.50;99.90
5196;DHT22;2617;51.006;12.436;2023-11-21T15:27:49;3.60;99.90
5196;DHT22;2617;51.006;12.436;2023-11-21T15:32:51;3.60;99.90
5196;DHT22;2617;51.006;12.436;2023-11-21T15:37:53;3.60;99.90
5196;DHT22;2617;51.006;12.436;2023-11-21T15:42:54;3.50;99.90
5196;DHT22;2617;51.006;12.436;2023-11-21T15:47:56;3.40;99.90
5196;DHT22;2617;51.006;12.436;2023-11-21T15:52:58;3.30;99.90
5196;DHT22;2617;51.006;12.436;2023-11-21T15:57:59;3.30;99.90
5196;DHT22;2617;51.006;12.436;2023-11-21T16:03:02;3.30;99.90
5196;DHT22;2617;51.006;12.436;2023-11-21T16:08:03;3.40;99.90
5196;DHT22;2617;51.006;12.436;2023-11-21T16:13:05;3.40;99.90
5196;DHT22;2617;51.006;12.436;2023-11-21T16:18:08;3.40;99.90
5196;DHT22;2617;51.006;12.436;2023-11-21T16:23:09;3.40;99.90
5196;DHT22;2617;51.006;12.436;2023-11-21T16:28:11;3.40;99.90
5196;DHT22;2617;51.006;12.436;2023-11-21T16:33:13;3.50;99.90
5196;DHT22;2617;51.006;12.436;2023-11-21T16:38:15;3.40;99.90
5196;DHT22;2617;51.006;12.436;2023-11-21T16:43:17;3.40;99.90
5196;DHT22;2617;51.006;12.436;2023-11-21T16:48:19;3.40;99.90
5196;DHT22;2617;51.006;12.436;2023-11-21T16:53:21;3.50;99.90
5196;DHT22;2617;51.006;12.436;2023-11-21T16:58:22;3.40;99.90
5196;DHT22;2617;51.006;12.436;2023-11-21T17:03:24;3.40;99.90
5196;DHT22;2617;51.006;12.436;2023-11-21T17:08:26;3.40;99.90
5196;DHT22;2617;51.006;12.436;2023-11-21T17:13:27;3.40;99.90
5196;DHT22;2617;51.006;12.436;2023-11-21T17:18:30;3.40;99.90
5196;DHT22;2617;51.006;12.436;2023-11-21T17:23:33;3.40;99.90
5196;DHT22;2617;51.006;12.436;2023-11-21T17:28:34;3.40;99.90
5196;DHT22;2617;51.006;12.436;2023-11-21T17:33:39;3.40;99.90
5196;DHT22;2617;51.006;12.436;2023-11-21T17:38:39;3.40;99.90
5196;DHT22;2617;51.006;12.436;2023-11-21T17:43:40;3.40;99.90
5196;DHT22;2617;51.006;12.436;2023-11-21T17:48:42;3.40;99.90
5196;DHT22;2617;51.006;12.436;2023-11-21T17:53:44;3.20;99.90
5196;DHT22;2617;51.006;12.436;2023-11-21T17:58:46;3.20;99.90
5196;DHT22;2617;51.006;12.436;2023-11-21T18:03:48;3.10;99.90
5196;DHT22;2617;51.006;12.436;2023-11-21T18:08:50;3.10;99.90
5196;DHT22;2617;51.006;12.436;2023-11-21T18:13:52;3.00;99.90
5196;DHT22;2617;51.006;12.436;2023-11-21T18:18:54;3.00;99.90
5196;DHT22;2617;51.006;12.436;2023-11-21T18:23:55;3.00;99.90
5196;DHT22;2617;51.006;12.436;2023-11-21T18:28:57;2.90;99.90
5196;DHT22;2617;51.006;12.436;2023-11-21T18:34:00;2.80;99.90
5196;DHT22;2617;51.006;12.436;2023-11-21T18:39:01;2.80;99.90
5196;DHT22;2617;51.006;12.436;2023-11-21T18:44:05;2.90;99.90
5196;DHT22;2617;51.006;12.436;2023-11-21T18:49:07;2.90;99.90
5196;DHT22;2617;51.006;12.436;2023-11-21T18:54:08;2.80;99.90
5196;DHT22;2617;51.006;12.436;2023-11-21T18:59:10;2.80;99.90
5196;DHT22;2617;51.006;12.436;2023-11-21T19:04:12;2.80;99.90
5196;DHT22;2617;51.006;12.436;2023-11-21T19:09:14;2.90;99.90
5196;DHT22;2617;51.006;12.436;2023-11-21T19:14:16;2.80;99.90
5196;DHT22;2617;51.006;12.436;2023-11-21T19:19:18;2.90;99.90
5196;DHT22;2617;51.006;12.436;2023-11-21T19:24:20;2.90;99.90
5196;DHT22;2617;51.006;12.436;2023-11-21T19:29:22;2.90;99.90
5196;DHT22;2617;51.006;12.436;2023-11-21T19:34:24;2.90;99.90
5196;DHT22;2617;51.006;12.436;2023-11-21T19:39:26;2.90;99.90
5196;DHT22;2617;51.006;12.436;2023-11-21T19:44:29;2.80;99.90
5196;DHT22;2617;51.006;12.436;2023-11-21T19:49:30;2.80;99.90
5196;DHT22;2617;51.006;12.436;2023-11-21T19:54:33;2.80;99.90
5196;DHT22;2617;51.006;12.436;2023-11-21T19:59:35;2.70;99.90
5196;DHT22;2617;51.006;12.436;2023-11-21T20:04:37;2.60;99.90
5196;DHT22;2617;51.006;12.436;2023-11-21T20:09:39;2.60;99.90
5196;DHT22;2617;51.006;12.436;2023-11-21T20:14:42;2.60;99.90
5196;DHT22;2617;51.006;12.436;2023-11-21T20:19:44;2.60;99.90
5196;DHT22;2617;51.006;12.436;2023-11-21T20:24:45;2.60;99.90
5196;DHT22;2617;51.006;12.436;2023-11-21T20:29:47;2.60;99.90
5196;DHT22;2617;51.006;12.436;2023-11-21T20:34:48;2.50;99.90
5196;DHT22;2617;51.006;12.436;2023-11-21T20:39:50;2.20;99.90
5196;DHT22;2617;51.006;12.436;2023-11-21T20:44:53;2.10;99.90
5196;DHT22;2617;51.006;12.436;2023-11-21T20:49:54;1.90;99.90
5196;DHT22;2617;51.006;12.436;2023-11-21T20:54:57;1.70;99.90
5196;DHT22;2617;51.006;12.436;2023-11-21T20:59:58;1.60;99.90
5196;DHT22;2617;51.006;12.436;2023-11-21T21:05:00;1.60;99.90
5196;DHT22;2617;51.006;12.436;2023-11-21T21:10:02;1.60;99.90
5196;DHT22;2617;51.006;12.436;2023-11-21T21:15:07;1.60;99.90
5196;DHT22;2617;51.006;12.436;2023-11-21T21:20:08;1.50;99.90
5196;DHT22;2617;51.006;12.436;2023-11-21T21:25:10;1.40;99.90
5196;DHT22;2617;51.006;12.436;2023-11-21T21:30:14;1.30;99.90
5196;DHT22;2617;51.006;12.436;2023-11-21T21:35:16;1.40;99.90
5196;DHT22;2617;51.006;12.436;2023-11-21T21:40:18;1.30;99.90
5196;DHT22;2617;51.006;12.436;2023-11-21T21:45:20;1.40;99.90
5196;DHT22;2617;51.006;12.436;2023-11-21T21:50:22;1.40;99.90
5196;DHT22;2617;51.006;12.436;2023-11-21T21:55:24;1.30;99.90
5196;DHT22;2617;51.006;12.436;2023-11-21T22:00:26;1.40;99.90
5196;DHT22;2617;51.006;12.436;2023-11-21T22:05:28;1.30;99.90
5196;DHT22;2617;51.006;12.436;2023-11-21T22:10:30;1.20;99.90
5196;DHT22;2617;51.006;12.436;2023-11-21T22:15:32;1.20;99.90
5196;DHT22;2617;51.006;12.436;2023-11-21T22:20:35;0.90;99.90
5196;DHT22;2617;51.006;12.436;2023-11-21T22:25:37;0.90;99.90
5196;DHT22;2617;51.006;12.436;2023-11-21T22:30:39;0.80;99.90
5196;DHT22;2617;51.006;12.436;2023-11-21T22:35:41;0.80;99.90
5196;DHT22;2617;51.006;12.436;2023-11-21T22:40:43;0.80;99.90
5196;DHT22;2617;51.006;12.436;2023-11-21T22:45:45;0.70;99.90
5196;DHT22;2617;51.006;12.436;2023-11-21T22:50:47;0.80;99.90
5196;DHT22;2617;51.006;12.436;2023-11-21T22:55:49;0.70;99.90
5196;DHT22;2617;51.006;12.436;2023-11-21T23:00:51;0.70;99.90
5196;DHT22;2617;51.006;12.436;2023-11-21T23:05:52;0.60;99.90
5196;DHT22;2617;51.006;12.436;2023-11-21T23:10:54;0.50;99.90
5196;DHT22;2617;51.006;12.436;2023-11-21T23:15:56;0.50;99.90
5196;DHT22;2617;51.006;12.436;2023-11-21T23:20:58;0.50;99.90
5196;DHT22;2617;51.006;12.436;2023-11-21T23:25:59;0.50;99.90
5196;DHT22;2617;51.006;12.436;2023-11-21T23:31:01;0.40;99.90
5196;DHT22;2617;51.006;12.436;2023-11-21T23:36:03;0.40;99.90
5196;DHT22;2617;51.006;12.436;2023-11-21T23:41:05;0.40;99.90
5196;DHT22;2617;51.006;12.436;2023-11-21T23:46:06;0.30;99.90
5196;DHT22;2617;51.006;12.436;2023-11-21T23:51:08;0.30;99.90
5196;DHT22;2617;51.006;12.436;2023-11-21T23:56:11;0.30;99.90
